createdAt,value
2022-07-29T00:03:50.708Z,16.62
2022-07-29T00:06:19.666Z,16.79
2022-07-29T00:08:48.673Z,16.74
2022-07-29T00:11:17.404Z,16.10
2022-07-29T00:13:50.773Z,16.77
2022-07-29T00:16:20.067Z,16.70
2022-07-29T00:18:50.038Z,16.48
2022-07-29T00:21:18.995Z,16.51
2022-07-29T00:23:47.592Z,16.47
2022-07-29T00:26:16.184Z,16.57
2022-07-29T00:28:45.085Z,16.49
2022-07-29T00:31:14.393Z,16.37
2022-07-29T00:33:43.241Z,16.33
2022-07-29T00:36:12.231Z,16.39
2022-07-29T00:38:42.618Z,16.44
2022-07-29T00:41:11.522Z,16.38
2022-07-29T00:43:40.422Z,16.27
2022-07-29T00:46:09.249Z,16.25
2022-07-29T00:48:38.370Z,16.19
2022-07-29T00:51:08.666Z,16.19
2022-07-29T00:53:40.096Z,16.24
2022-07-29T00:56:08.929Z,16.19
2022-07-29T00:58:37.702Z,15.85
2022-07-29T01:01:06.647Z,15.91
2022-07-29T01:03:35.540Z,15.97
2022-07-29T01:06:04.570Z,16.13
2022-07-29T01:08:35.414Z,16.10
2022-07-29T01:11:05.989Z,16.02
2022-07-29T01:13:36.343Z,15.49
2022-07-29T01:16:15.199Z,15.99
2022-07-29T01:18:49.319Z,15.93
2022-07-29T01:21:51.931Z,14.76
2022-07-29T01:24:50.598Z,15.84
2022-07-29T01:27:53.659Z,15.82
2022-07-29T01:30:27.946Z,15.59
2022-07-29T01:33:05.209Z,15.81
2022-07-29T01:35:41.958Z,15.73
2022-07-29T01:38:19.077Z,15.57
2022-07-29T01:40:53.785Z,15.68
2022-07-29T01:43:33.366Z,15.73
2022-07-29T01:46:08.684Z,15.63
2022-07-29T01:48:43.247Z,15.51
2022-07-29T01:51:20.181Z,15.41
2022-07-29T01:54:00.119Z,15.40
2022-07-29T01:56:34.782Z,15.26
2022-07-29T01:59:06.690Z,15.26
2022-07-29T02:01:39.790Z,15.32
2022-07-29T02:04:13.359Z,15.30
2022-07-29T02:07:03.707Z,15.26
2022-07-29T02:09:35.418Z,15.19
2022-07-29T02:12:06.732Z,15.13
2022-07-29T02:14:41.867Z,15.12
2022-07-29T02:17:16.401Z,14.99
2022-07-29T02:19:47.488Z,15.19
2022-07-29T02:22:17.124Z,15.10
2022-07-29T02:24:48.543Z,15.08
2022-07-29T02:27:21.258Z,15.03
2022-07-29T02:29:54.268Z,14.81
2022-07-29T02:32:26.779Z,15.00
2022-07-29T02:34:57.740Z,15.08
2022-07-29T02:37:28.834Z,15.16
2022-07-29T02:39:59.713Z,14.93
2022-07-29T02:42:31.053Z,15.23
2022-07-29T02:45:00.014Z,15.22
2022-07-29T02:47:41.585Z,15.17
2022-07-29T02:50:17.605Z,14.96
2022-07-29T02:52:54.762Z,14.93
2022-07-29T02:55:32.268Z,14.97
2022-07-29T02:58:04.506Z,14.96
2022-07-29T03:00:39.852Z,14.64
2022-07-29T03:03:15.304Z,14.94
2022-07-29T03:05:44.394Z,14.96
2022-07-29T03:08:15.053Z,14.99
2022-07-29T03:10:48.233Z,15.01
2022-07-29T03:13:18.323Z,14.98
2022-07-29T03:15:49.198Z,15.08
2022-07-29T03:18:20.053Z,15.09
2022-07-29T03:20:48.745Z,14.80
2022-07-29T03:23:23.738Z,14.99
2022-07-29T03:25:52.535Z,15.10
2022-07-29T03:28:21.658Z,15.12
2022-07-29T03:30:52.129Z,15.18
2022-07-29T03:33:22.256Z,15.18
2022-07-29T03:35:50.812Z,15.00
2022-07-29T03:38:19.416Z,15.27
2022-07-29T03:40:55.642Z,14.74
2022-07-29T03:43:30.847Z,15.42
2022-07-29T03:46:03.604Z,15.47
2022-07-29T03:48:38.669Z,15.50
2022-07-29T03:51:07.839Z,15.55
2022-07-29T03:53:37.643Z,15.57
2022-07-29T03:56:08.709Z,15.59
2022-07-29T03:58:38.115Z,15.59
2022-07-29T04:01:06.984Z,15.57
2022-07-29T04:03:37.538Z,15.61
2022-07-29T04:06:09.985Z,15.55
2022-07-29T04:08:38.621Z,15.32
2022-07-29T04:11:07.659Z,15.67
2022-07-29T04:13:37.382Z,15.71
2022-07-29T04:16:06.935Z,15.76
2022-07-29T04:18:36.962Z,15.65
2022-07-29T04:21:06.334Z,15.88
2022-07-29T04:23:34.945Z,15.92
2022-07-29T04:26:03.778Z,15.96
2022-07-29T04:28:32.388Z,15.97
2022-07-29T04:31:00.996Z,15.98
2022-07-29T04:33:29.985Z,16.02
2022-07-29T04:36:00.074Z,16.06
2022-07-29T04:38:30.069Z,16.07
2022-07-29T04:40:58.880Z,16.10
2022-07-29T04:43:28.240Z,16.10
2022-07-29T04:46:06.021Z,16.16
2022-07-29T04:48:34.757Z,16.14
2022-07-29T04:51:04.767Z,16.15
2022-07-29T04:53:33.647Z,16.18
2022-07-29T04:56:02.531Z,16.21
2022-07-29T04:58:31.164Z,16.26
2022-07-29T05:00:59.808Z,16.25
2022-07-29T05:03:28.796Z,16.25
2022-07-29T05:05:57.575Z,16.20
2022-07-29T05:08:27.603Z,16.20
2022-07-29T05:10:56.526Z,16.30
2022-07-29T05:13:25.127Z,16.37
2022-07-29T05:15:54.104Z,16.44
2022-07-29T05:18:26.099Z,16.58
2022-07-29T05:20:55.260Z,16.66
2022-07-29T05:23:24.207Z,16.72
2022-07-29T05:25:54.216Z,16.75
2022-07-29T05:28:23.340Z,16.79
2022-07-29T05:30:52.202Z,17.12
2022-07-29T05:33:36.229Z,17.31
2022-07-29T05:36:07.989Z,17.42
2022-07-29T05:38:37.716Z,17.44
2022-07-29T05:41:08.062Z,17.88
2022-07-29T05:43:36.668Z,18.26
2022-07-29T05:46:05.301Z,18.34
2022-07-29T05:48:33.996Z,18.33
2022-07-29T05:51:02.959Z,18.65
2022-07-29T05:53:31.596Z,18.37
2022-07-29T05:56:00.192Z,18.47
2022-07-29T05:58:30.787Z,18.57
2022-07-29T06:01:00.357Z,18.60
2022-07-29T06:03:29.680Z,18.87
2022-07-29T06:05:58.526Z,19.15
2022-07-29T06:08:27.184Z,18.82
2022-07-29T06:10:56.262Z,19.07
2022-07-29T06:13:24.863Z,19.50
2022-07-29T06:15:55.050Z,19.52
2022-07-29T06:18:25.000Z,19.01
2022-07-29T06:20:53.876Z,19.42
2022-07-29T06:23:23.509Z,19.13
2022-07-29T06:25:52.189Z,19.69
2022-07-29T06:28:21.062Z,20.14
2022-07-29T06:30:49.719Z,20.37
2022-07-29T06:33:22.860Z,20.73
2022-07-29T06:35:53.160Z,20.90
2022-07-29T06:38:30.872Z,20.18
2022-07-29T06:41:03.456Z,20.37
2022-07-29T06:43:50.251Z,20.79
2022-07-29T06:46:22.081Z,20.60
2022-07-29T06:48:53.454Z,20.79
2022-07-29T06:51:23.909Z,19.91
2022-07-29T06:53:58.075Z,20.77
2022-07-29T06:56:29.596Z,20.78
2022-07-29T06:58:58.139Z,21.27
2022-07-29T07:01:26.990Z,21.37
2022-07-29T07:03:57.256Z,21.24
2022-07-29T07:06:26.175Z,21.74
2022-07-29T07:08:54.771Z,21.15
2022-07-29T07:11:23.666Z,21.55
2022-07-29T07:13:52.252Z,21.04
2022-07-29T07:16:20.963Z,20.55
2022-07-29T07:18:49.625Z,20.21
2022-07-29T07:21:19.741Z,20.75
2022-07-29T07:23:48.776Z,20.96
2022-07-29T07:26:17.727Z,20.85
2022-07-29T07:28:46.614Z,20.64
2022-07-29T07:31:15.366Z,20.62
2022-07-29T07:33:44.001Z,20.92
2022-07-29T07:36:12.718Z,21.01
2022-07-29T07:38:42.793Z,21.42
2022-07-29T07:41:11.415Z,21.46
2022-07-29T07:43:40.019Z,21.75
2022-07-29T07:46:08.759Z,21.74
2022-07-29T07:48:38.047Z,21.71
2022-07-29T07:51:06.795Z,22.36
2022-07-29T07:53:35.428Z,22.33
2022-07-29T07:56:10.832Z,22.63
2022-07-29T07:58:40.789Z,22.42
2022-07-29T08:01:10.013Z,22.33
2022-07-29T08:03:39.330Z,22.64
2022-07-29T08:06:08.846Z,22.52
2022-07-29T08:08:37.486Z,22.70
2022-07-29T08:11:09.816Z,22.59
2022-07-29T08:13:40.439Z,22.61
2022-07-29T08:16:16.586Z,22.56
2022-07-29T08:18:47.957Z,22.86
2022-07-29T08:21:17.681Z,22.55
2022-07-29T08:24:00.793Z,23.28
2022-07-29T08:26:32.082Z,22.48
2022-07-29T08:29:00.781Z,22.94
2022-07-29T08:31:29.441Z,23.41
2022-07-29T08:34:00.835Z,23.80
2022-07-29T08:36:29.434Z,24.01
2022-07-29T08:38:57.985Z,24.04
2022-07-29T08:41:27.561Z,23.56
2022-07-29T08:43:57.613Z,24.07
2022-07-29T08:46:26.516Z,24.06
2022-07-29T08:48:55.519Z,24.83
2022-07-29T08:51:26.411Z,24.66
2022-07-29T08:53:57.462Z,24.62
2022-07-29T08:56:26.668Z,24.32
2022-07-29T08:58:59.995Z,23.93
2022-07-29T09:01:42.430Z,24.07
2022-07-29T09:04:14.597Z,24.38
2022-07-29T09:06:48.315Z,23.76
2022-07-29T09:09:17.693Z,24.67
2022-07-29T09:11:46.569Z,25.19
2022-07-29T09:14:17.304Z,24.32
2022-07-29T09:17:01.201Z,24.26
2022-07-29T09:19:32.973Z,24.74
2022-07-29T09:22:04.066Z,24.63
2022-07-29T09:24:42.693Z,24.72
2022-07-29T09:27:22.791Z,24.39
2022-07-29T09:30:02.043Z,24.97
2022-07-29T09:32:31.670Z,25.63
2022-07-29T09:35:25.348Z,26.56
2022-07-29T09:37:54.443Z,26.42
2022-07-29T09:40:26.366Z,26.32
2022-07-29T09:42:58.280Z,26.73
2022-07-29T09:45:33.999Z,26.58
2022-07-29T09:48:16.259Z,27.31
2022-07-29T09:50:48.042Z,25.82
2022-07-29T09:53:34.007Z,25.77
2022-07-29T09:56:03.387Z,26.01
2022-07-29T09:58:34.688Z,26.85
2022-07-29T10:01:07.701Z,26.51
2022-07-29T10:04:07.354Z,27.11
2022-07-29T10:06:36.063Z,27.86
2022-07-29T10:09:14.417Z,28.19
2022-07-29T10:11:48.924Z,27.48
2022-07-29T10:14:19.146Z,27.59
2022-07-29T10:16:49.589Z,28.20
2022-07-29T10:19:19.592Z,28.12
2022-07-29T10:21:48.597Z,28.49
2022-07-29T10:24:17.942Z,28.69
2022-07-29T10:26:48.143Z,28.89
2022-07-29T10:29:16.742Z,28.19
2022-07-29T10:32:07.265Z,28.19
2022-07-29T10:34:59.921Z,28.24
2022-07-29T10:37:45.807Z,27.88
2022-07-29T10:40:47.593Z,27.84
2022-07-29T10:43:25.171Z,26.82
2022-07-29T10:46:00.333Z,27.62
2022-07-29T10:48:30.944Z,28.60
2022-07-29T10:51:03.925Z,29.02
2022-07-29T10:53:53.354Z,27.65
2022-07-29T10:56:35.062Z,27.48
2022-07-29T10:59:32.344Z,27.76
2022-07-29T11:02:45.077Z,27.12
2022-07-29T11:05:18.816Z,27.32
2022-07-29T11:08:26.404Z,26.90
2022-07-29T11:11:39.629Z,26.86
2022-07-29T11:14:13.248Z,27.14
2022-07-29T11:20:14.593Z,27.67
2022-07-29T11:22:47.355Z,28.27
2022-07-29T11:25:17.570Z,28.32
2022-07-29T11:27:47.571Z,27.73
2022-07-29T11:30:17.034Z,27.87
2022-07-29T11:32:48.673Z,27.86
2022-07-29T11:35:37.265Z,27.90
2022-07-29T11:38:36.127Z,27.76
2022-07-29T11:41:25.480Z,27.70
2022-07-29T11:43:56.198Z,27.71
2022-07-29T11:46:49.984Z,27.54
2022-07-29T11:49:32.792Z,27.46
2022-07-29T11:52:04.024Z,27.14
2022-07-29T11:57:36.287Z,27.58
2022-07-29T12:00:12.268Z,27.50
2022-07-29T12:02:44.187Z,27.60
2022-07-29T12:05:36.033Z,27.37
2022-07-29T12:08:27.006Z,27.09
2022-07-29T12:10:57.162Z,26.92
2022-07-29T12:13:37.773Z,27.07
2022-07-29T12:16:07.299Z,27.38
2022-07-29T12:18:36.251Z,27.69
2022-07-29T12:21:06.208Z,27.82
2022-07-29T12:23:35.598Z,27.96
2022-07-29T12:26:10.918Z,28.04
2022-07-29T12:28:51.286Z,28.15
2022-07-29T12:31:42.098Z,28.62
2022-07-29T12:34:09.135Z,28.63
2022-07-29T12:36:38.749Z,28.18
2022-07-29T12:39:07.830Z,28.08
2022-07-29T12:41:38.447Z,28.49
2022-07-29T12:44:07.655Z,28.41
2022-07-29T12:46:36.313Z,28.10
2022-07-29T12:49:06.179Z,28.01
2022-07-29T12:51:38.217Z,28.32
2022-07-29T12:54:11.594Z,28.48
2022-07-29T12:56:44.777Z,28.68
2022-07-29T12:59:18.912Z,28.73
2022-07-29T13:01:50.315Z,28.51
2022-07-29T13:04:30.783Z,28.22
2022-07-29T13:07:05.217Z,28.28
2022-07-29T13:09:42.215Z,28.60
2022-07-29T13:12:15.048Z,28.79
2022-07-29T13:14:46.332Z,28.92
2022-07-29T13:17:17.679Z,29.02
2022-07-29T13:19:48.753Z,29.07
2022-07-29T13:22:21.381Z,29.11
2022-07-29T13:24:55.736Z,28.94
2022-07-29T13:27:28.489Z,29.06
2022-07-29T13:29:59.046Z,28.86
2022-07-29T13:32:29.431Z,28.72
2022-07-29T13:34:59.543Z,28.58
2022-07-29T13:37:30.756Z,28.47
2022-07-29T13:40:00.511Z,28.47
2022-07-29T13:42:30.890Z,28.79
2022-07-29T13:44:59.538Z,28.96
2022-07-29T13:47:32.680Z,29.32
2022-07-29T13:50:02.611Z,29.12
2022-07-29T13:52:31.719Z,29.10
2022-07-29T13:55:00.883Z,29.02
2022-07-29T13:57:31.400Z,28.77
2022-07-29T14:00:00.960Z,28.54
2022-07-29T14:02:34.103Z,28.59
2022-07-29T14:05:07.661Z,28.90
2022-07-29T14:07:37.495Z,28.88
2022-07-29T14:10:08.146Z,28.99
2022-07-29T14:12:39.310Z,29.21
2022-07-29T14:15:09.431Z,29.18
2022-07-29T14:17:40.849Z,29.25
2022-07-29T14:20:10.557Z,29.04
2022-07-29T14:22:42.365Z,28.12
2022-07-29T14:25:15.082Z,28.93
2022-07-29T14:27:45.959Z,28.96
2022-07-29T14:30:15.651Z,28.97
2022-07-29T14:32:44.475Z,29.46
2022-07-29T14:35:13.157Z,29.66
2022-07-29T14:37:42.389Z,29.25
2022-07-29T14:40:13.106Z,29.31
2022-07-29T14:42:42.280Z,29.12
2022-07-29T14:45:12.928Z,29.27
2022-07-29T14:47:41.753Z,29.28
2022-07-29T14:50:12.529Z,29.22
2022-07-29T14:52:41.280Z,29.09
2022-07-29T14:55:16.656Z,29.09
2022-07-29T14:57:50.947Z,29.11
2022-07-29T15:00:21.822Z,28.59
2022-07-29T15:03:06.523Z,28.91
2022-07-29T15:05:40.130Z,28.86
2022-07-29T15:08:09.836Z,28.76
2022-07-29T15:10:38.761Z,28.51
2022-07-29T15:13:07.441Z,28.76
2022-07-29T15:15:37.588Z,28.44
2022-07-29T15:18:06.636Z,28.62
2022-07-29T15:20:35.244Z,28.50
2022-07-29T15:23:03.846Z,28.89
2022-07-29T15:25:34.041Z,28.75
2022-07-29T15:28:04.064Z,28.83
2022-07-29T15:30:34.588Z,28.90
2022-07-29T15:33:05.784Z,28.87
2022-07-29T15:35:40.393Z,28.94
2022-07-29T15:38:09.666Z,28.89
2022-07-29T15:40:40.203Z,28.58
2022-07-29T15:43:09.376Z,28.98
2022-07-29T15:45:40.549Z,28.63
2022-07-29T15:48:14.562Z,29.02
2022-07-29T15:50:46.983Z,29.00
2022-07-29T15:53:16.228Z,28.80
2022-07-29T15:55:46.285Z,28.45
2022-07-29T15:58:14.825Z,28.43
2022-07-29T16:00:43.573Z,28.39
2022-07-29T16:03:13.830Z,28.79
2022-07-29T16:05:42.960Z,28.59
2022-07-29T16:08:11.630Z,28.82
2022-07-29T16:10:41.068Z,28.64
2022-07-29T16:13:09.728Z,28.68
2022-07-29T16:15:38.652Z,28.48
2022-07-29T16:18:08.953Z,28.25
2022-07-29T16:20:39.625Z,28.67
2022-07-29T16:23:09.895Z,28.98
2022-07-29T16:25:59.169Z,29.24
2022-07-29T16:28:28.949Z,29.44
2022-07-29T16:30:57.623Z,29.68
2022-07-29T16:33:26.642Z,29.95
2022-07-29T16:35:56.638Z,29.74
2022-07-29T16:38:25.341Z,29.40
2022-07-29T16:40:53.964Z,29.54
2022-07-29T16:43:22.678Z,29.57
2022-07-29T16:45:51.339Z,29.57
2022-07-29T16:48:20.057Z,29.41
2022-07-29T16:50:49.141Z,29.47
2022-07-29T16:53:19.168Z,29.18
2022-07-29T16:55:47.829Z,29.03
2022-07-29T16:58:16.494Z,29.45
2022-07-29T17:00:45.241Z,29.38
2022-07-29T17:03:13.895Z,29.56
2022-07-29T17:05:50.698Z,29.58
2022-07-29T17:08:24.002Z,29.45
2022-07-29T17:10:52.723Z,29.34
2022-07-29T17:13:21.624Z,29.34
2022-07-29T17:15:50.260Z,29.37
2022-07-29T17:18:19.003Z,29.44
2022-07-29T17:20:47.687Z,29.14
2022-07-29T17:23:16.217Z,29.40
2022-07-29T17:25:46.519Z,29.31
2022-07-29T17:28:15.152Z,29.37
2022-07-29T17:30:43.796Z,29.33
2022-07-29T17:33:12.487Z,29.26
2022-07-29T17:35:58.740Z,29.06
2022-07-29T17:38:27.389Z,28.99
2022-07-29T17:40:57.439Z,29.03
2022-07-29T17:43:26.069Z,29.02
2022-07-29T17:45:59.250Z,28.90
2022-07-29T17:48:28.229Z,28.44
2022-07-29T17:50:58.112Z,28.32
2022-07-29T17:53:26.701Z,28.15
2022-07-29T17:55:58.324Z,27.65
2022-07-29T17:58:27.764Z,27.63
2022-07-29T18:00:56.545Z,27.38
2022-07-29T18:03:26.044Z,27.20
2022-07-29T18:05:54.947Z,26.98
2022-07-29T18:08:24.098Z,26.80
2022-07-29T18:10:53.166Z,26.57
2022-07-29T18:13:23.278Z,26.57
2022-07-29T18:15:52.200Z,26.45
2022-07-29T18:18:20.954Z,26.31
2022-07-29T18:20:49.766Z,25.95
2022-07-29T18:23:18.446Z,25.95
2022-07-29T18:25:47.467Z,26.03
2022-07-29T18:28:16.354Z,25.95
2022-07-29T18:30:47.578Z,25.67
2022-07-29T18:33:22.027Z,25.56
2022-07-29T18:36:04.221Z,25.29
2022-07-29T18:38:41.215Z,25.42
2022-07-29T18:41:10.170Z,25.23
2022-07-29T18:43:51.542Z,24.87
2022-07-29T18:46:22.959Z,24.97
2022-07-29T18:48:52.808Z,24.91
2022-07-29T18:51:22.773Z,24.74
2022-07-29T18:53:52.849Z,24.51
2022-07-29T18:56:22.229Z,24.44
2022-07-29T18:58:51.162Z,24.34
2022-07-29T19:01:21.560Z,24.29
2022-07-29T19:03:50.563Z,24.39
2022-07-29T19:06:22.731Z,24.34
2022-07-29T19:08:54.661Z,24.15
2022-07-29T19:11:23.520Z,24.12
2022-07-29T19:13:52.248Z,24.07
2022-07-29T19:16:22.329Z,23.73
2022-07-29T19:18:51.621Z,23.89
2022-07-29T19:21:20.508Z,23.73
2022-07-29T19:24:01.608Z,23.59
2022-07-29T19:26:43.947Z,23.60
2022-07-29T19:29:12.579Z,23.41
2022-07-29T19:31:43.237Z,23.17
2022-07-29T19:34:12.008Z,23.22
2022-07-29T19:36:44.777Z,23.05
2022-07-29T19:39:15.467Z,22.85
2022-07-29T19:41:44.344Z,23.01
2022-07-29T19:44:13.882Z,23.04
2022-07-29T19:46:45.483Z,23.08
2022-07-29T19:49:14.738Z,23.09
2022-07-29T19:51:43.331Z,23.19
2022-07-29T19:54:12.131Z,23.07
2022-07-29T19:56:42.264Z,22.99
2022-07-29T19:59:11.013Z,23.11
2022-07-29T20:01:41.140Z,23.04
2022-07-29T20:04:11.333Z,22.98
2022-07-29T20:06:41.019Z,23.06
2022-07-29T20:09:20.259Z,22.92
2022-07-29T20:11:49.412Z,22.76
2022-07-29T20:14:18.098Z,22.72
2022-07-29T20:16:47.082Z,22.75
2022-07-29T20:19:17.202Z,22.35
2022-07-29T20:21:46.204Z,22.64
2022-07-29T20:24:15.075Z,22.64
2022-07-29T20:26:43.751Z,22.30
2022-07-29T20:29:12.332Z,22.37
2022-07-29T20:31:43.327Z,22.18
2022-07-29T20:34:14.249Z,22.26
2022-07-29T20:36:44.885Z,21.99
2022-07-29T20:39:13.485Z,21.57
2022-07-29T20:41:42.313Z,22.03
2022-07-29T20:44:11.310Z,22.15
2022-07-29T20:46:40.423Z,22.09
2022-07-29T20:49:09.429Z,22.21
2022-07-29T20:51:43.809Z,21.79
2022-07-29T20:54:14.582Z,22.03
2022-07-29T20:56:43.130Z,22.12
2022-07-29T20:59:11.981Z,22.01
2022-07-29T21:01:41.505Z,21.86
2022-07-29T21:04:17.712Z,21.94
2022-07-29T21:06:46.740Z,22.03
2022-07-29T21:09:16.863Z,21.75
2022-07-29T21:11:45.614Z,22.08
2022-07-29T21:14:21.933Z,21.86
2022-07-29T21:16:50.750Z,22.00
2022-07-29T21:19:19.679Z,22.02
2022-07-29T21:21:48.728Z,22.10
2022-07-29T21:24:18.668Z,22.11
2022-07-29T21:26:59.438Z,21.27
2022-07-29T21:29:35.280Z,21.84
2022-07-29T21:32:47.882Z,20.72
2022-07-29T21:36:11.148Z,21.88
2022-07-29T21:38:58.484Z,21.68
2022-07-29T21:42:07.534Z,20.49
2022-07-29T21:44:41.284Z,19.98
2022-07-29T21:47:11.974Z,21.57
2022-07-29T21:49:42.098Z,21.55
2022-07-29T21:52:11.189Z,21.56
2022-07-29T21:54:40.094Z,21.56
2022-07-29T21:57:10.175Z,21.39
2022-07-29T21:59:39.049Z,21.32
2022-07-29T22:02:07.615Z,20.66
2022-07-29T22:04:36.719Z,21.04
2022-07-29T22:07:05.783Z,21.13
2022-07-29T22:09:34.385Z,21.05
2022-07-29T22:12:03.296Z,20.63
2022-07-29T22:14:33.436Z,21.10
2022-07-29T22:17:02.424Z,20.92
2022-07-29T22:19:31.503Z,20.85
2022-07-29T22:22:00.669Z,21.21
2022-07-29T22:24:29.456Z,21.02
2022-07-29T22:26:58.497Z,21.15
2022-07-29T22:29:27.352Z,20.85
2022-07-29T22:31:57.260Z,20.86
2022-07-29T22:34:26.097Z,20.83
2022-07-29T22:37:06.420Z,20.83
2022-07-29T22:39:35.345Z,20.66
2022-07-29T22:42:04.361Z,20.91
2022-07-29T22:44:33.066Z,20.77
2022-07-29T22:47:03.199Z,20.43
2022-07-29T22:49:32.620Z,20.73
2022-07-29T22:52:01.378Z,20.61
2022-07-29T22:54:29.942Z,20.64
2022-07-29T22:56:58.839Z,20.63
2022-07-29T22:59:27.530Z,20.56
2022-07-29T23:01:56.128Z,20.61
2022-07-29T23:04:26.153Z,20.46
2022-07-29T23:06:54.827Z,20.52
2022-07-29T23:09:23.713Z,20.59
2022-07-29T23:11:52.685Z,20.40
2022-07-29T23:14:21.248Z,20.23
2022-07-29T23:16:50.581Z,20.10
2022-07-29T23:19:19.459Z,20.14
2022-07-29T23:21:49.440Z,20.17
2022-07-29T23:24:18.065Z,20.07
2022-07-29T23:26:47.029Z,20.05
2022-07-29T23:29:15.619Z,20.04
2022-07-29T23:31:48.140Z,19.56
2022-07-29T23:34:17.198Z,19.84
2022-07-29T23:36:46.089Z,19.86
2022-07-29T23:39:16.501Z,20.01
2022-07-29T23:41:45.325Z,19.95
2022-07-29T23:44:14.091Z,19.30
2022-07-29T23:46:43.046Z,19.78
2022-07-29T23:49:11.610Z,19.79
2022-07-29T23:51:40.269Z,19.71
2022-07-29T23:54:09.197Z,19.69
2022-07-29T23:56:39.163Z,19.70
2022-07-29T23:59:08.055Z,19.78
